sensor_id;sensor_type;location;lat;lon;timestamp;P1;durP1;ratioP1;P2;durP2;ratioP2
71570;SDS011;59407;42.682;23.322;2022-09-01T00:02:09;21.03;;;14.50;;
71570;SDS011;59407;42.682;23.322;2022-09-01T00:04:36;26.10;;;15.70;;
71570;SDS011;59407;42.682;23.322;2022-09-01T00:07:05;23.88;;;15.02;;
71570;SDS011;59407;42.682;23.322;2022-09-01T00:09:31;21.25;;;14.02;;
71570;SDS011;59407;42.682;23.322;2022-09-01T00:11:57;22.97;;;14.57;;
71570;SDS011;59407;42.682;23.322;2022-09-01T00:14:25;20.98;;;14.25;;
71570;SDS011;59407;42.682;23.322;2022-09-01T00:16:52;26.73;;;15.27;;
71570;SDS011;59407;42.682;23.322;2022-09-01T00:19:18;21.38;;;14.73;;
71570;SDS011;59407;42.682;23.322;2022-09-01T00:21:45;21.97;;;14.80;;
71570;SDS011;59407;42.682;23.322;2022-09-01T00:24:11;21.58;;;14.57;;
71570;SDS011;59407;42.682;23.322;2022-09-01T00:26:37;23.80;;;15.55;;
71570;SDS011;59407;42.682;23.322;2022-09-01T00:29:03;22.53;;;14.27;;
71570;SDS011;59407;42.682;23.322;2022-09-01T00:31:30;20.80;;;14.05;;
71570;SDS011;59407;42.682;23.322;2022-09-01T00:33:55;23.20;;;14.85;;
71570;SDS011;59407;42.682;23.322;2022-09-01T00:36:21;23.43;;;15.40;;
71570;SDS011;59407;42.682;23.322;2022-09-01T00:38:47;21.52;;;13.93;;
71570;SDS011;59407;42.682;23.322;2022-09-01T00:41:14;21.70;;;13.00;;
71570;SDS011;59407;42.682;23.322;2022-09-01T00:43:44;20.58;;;13.82;;
71570;SDS011;59407;42.682;23.322;2022-09-01T00:46:16;21.85;;;13.88;;
71570;SDS011;59407;42.682;23.322;2022-09-01T00:48:53;24.77;;;14.65;;
71570;SDS011;59407;42.682;23.322;2022-09-01T00:51:21;19.63;;;13.50;;
71570;SDS011;59407;42.682;23.322;2022-09-01T00:53:47;21.97;;;12.97;;
71570;SDS011;59407;42.682;23.322;2022-09-01T00:56:13;19.67;;;13.07;;
71570;SDS011;59407;42.682;23.322;2022-09-01T00:58:39;19.98;;;12.88;;
71570;SDS011;59407;42.682;23.322;2022-09-01T01:01:05;20.90;;;12.97;;
71570;SDS011;59407;42.682;23.322;2022-09-01T01:03:33;20.45;;;12.93;;
71570;SDS011;59407;42.682;23.322;2022-09-01T01:06:00;21.35;;;13.95;;
71570;SDS011;59407;42.682;23.322;2022-09-01T01:08:30;25.10;;;14.20;;
71570;SDS011;59407;42.682;23.322;2022-09-01T01:10:58;23.23;;;15.18;;
71570;SDS011;59407;42.682;23.322;2022-09-01T01:16:23;21.92;;;13.55;;
71570;SDS011;59407;42.682;23.322;2022-09-01T01:18:51;21.40;;;13.73;;
71570;SDS011;59407;42.682;23.322;2022-09-01T01:21:24;20.47;;;13.70;;
71570;SDS011;59407;42.682;23.322;2022-09-01T01:24:26;23.75;;;12.75;;
71570;SDS011;59407;42.682;23.322;2022-09-01T01:26:54;21.17;;;13.90;;
71570;SDS011;59407;42.682;23.322;2022-09-01T01:29:24;23.83;;;13.23;;
71570;SDS011;59407;42.682;23.322;2022-09-01T01:31:53;19.50;;;13.20;;
71570;SDS011;59407;42.682;23.322;2022-09-01T01:34:18;22.37;;;13.70;;
71570;SDS011;59407;42.682;23.322;2022-09-01T01:36:44;22.88;;;14.75;;
71570;SDS011;59407;42.682;23.322;2022-09-01T01:39:16;21.80;;;13.93;;
71570;SDS011;59407;42.682;23.322;2022-09-01T01:41:44;20.63;;;13.55;;
71570;SDS011;59407;42.682;23.322;2022-09-01T01:44:13;21.52;;;14.45;;
71570;SDS011;59407;42.682;23.322;2022-09-01T01:46:42;22.98;;;14.48;;
71570;SDS011;59407;42.682;23.322;2022-09-01T01:49:11;21.63;;;14.38;;
71570;SDS011;59407;42.682;23.322;2022-09-01T01:51:37;21.50;;;14.63;;
71570;SDS011;59407;42.682;23.322;2022-09-01T01:54:03;23.48;;;13.40;;
71570;SDS011;59407;42.682;23.322;2022-09-01T01:56:29;26.48;;;14.65;;
71570;SDS011;59407;42.682;23.322;2022-09-01T01:58:57;24.75;;;15.52;;
71570;SDS011;59407;42.682;23.322;2022-09-01T02:01:23;22.13;;;14.35;;
71570;SDS011;59407;42.682;23.322;2022-09-01T02:03:53;23.30;;;14.67;;
71570;SDS011;59407;42.682;23.322;2022-09-01T02:06:20;22.38;;;14.20;;
71570;SDS011;59407;42.682;23.322;2022-09-01T02:08:48;23.50;;;14.93;;
71570;SDS011;59407;42.682;23.322;2022-09-01T02:11:16;23.50;;;14.80;;
71570;SDS011;59407;42.682;23.322;2022-09-01T02:13:42;25.37;;;15.10;;
71570;SDS011;59407;42.682;23.322;2022-09-01T02:16:09;25.65;;;14.43;;
71570;SDS011;59407;42.682;23.322;2022-09-01T02:18:39;24.40;;;14.32;;
71570;SDS011;59407;42.682;23.322;2022-09-01T02:21:07;25.52;;;14.18;;
71570;SDS011;59407;42.682;23.322;2022-09-01T02:23:37;24.77;;;14.48;;
71570;SDS011;59407;42.682;23.322;2022-09-01T02:26:03;22.50;;;13.73;;
71570;SDS011;59407;42.682;23.322;2022-09-01T02:28:31;23.02;;;14.70;;
71570;SDS011;59407;42.682;23.322;2022-09-01T02:30:59;23.33;;;15.43;;
71570;SDS011;59407;42.682;23.322;2022-09-01T02:33:27;23.65;;;14.98;;
71570;SDS011;59407;42.682;23.322;2022-09-01T02:35:55;22.17;;;14.18;;
71570;SDS011;59407;42.682;23.322;2022-09-01T02:38:23;25.07;;;15.10;;
71570;SDS011;59407;42.682;23.322;2022-09-01T02:40:54;22.88;;;14.48;;
71570;SDS011;59407;42.682;23.322;2022-09-01T02:43:20;24.63;;;14.82;;
71570;SDS011;59407;42.682;23.322;2022-09-01T02:45:47;26.42;;;15.30;;
71570;SDS011;59407;42.682;23.322;2022-09-01T02:48:16;22.87;;;15.37;;
71570;SDS011;59407;42.682;23.322;2022-09-01T02:50:42;24.05;;;15.63;;
71570;SDS011;59407;42.682;23.322;2022-09-01T02:53:07;28.23;;;16.30;;
71570;SDS011;59407;42.682;23.322;2022-09-01T02:55:37;23.02;;;14.73;;
71570;SDS011;59407;42.682;23.322;2022-09-01T02:58:04;23.40;;;15.00;;
71570;SDS011;59407;42.682;23.322;2022-09-01T03:00:32;22.75;;;15.20;;
71570;SDS011;59407;42.682;23.322;2022-09-01T03:03:04;25.03;;;14.57;;
71570;SDS011;59407;42.682;23.322;2022-09-01T03:05:31;24.73;;;15.05;;
71570;SDS011;59407;42.682;23.322;2022-09-01T03:07:59;22.85;;;14.82;;
71570;SDS011;59407;42.682;23.322;2022-09-01T03:10:32;24.98;;;15.05;;
71570;SDS011;59407;42.682;23.322;2022-09-01T03:13:21;25.08;;;16.33;;
71570;SDS011;59407;42.682;23.322;2022-09-01T03:15:47;22.47;;;15.13;;
71570;SDS011;59407;42.682;23.322;2022-09-01T03:18:14;23.42;;;15.40;;
71570;SDS011;59407;42.682;23.322;2022-09-01T03:20:43;26.20;;;16.20;;
71570;SDS011;59407;42.682;23.322;2022-09-01T03:23:11;23.42;;;16.52;;
71570;SDS011;59407;42.682;23.322;2022-09-01T03:25:39;25.13;;;15.02;;
71570;SDS011;59407;42.682;23.322;2022-09-01T03:28:05;24.50;;;15.43;;
71570;SDS011;59407;42.682;23.322;2022-09-01T03:30:33;26.05;;;15.80;;
71570;SDS011;59407;42.682;23.322;2022-09-01T03:33:00;25.27;;;16.02;;
71570;SDS011;59407;42.682;23.322;2022-09-01T03:35:27;23.45;;;15.48;;
71570;SDS011;59407;42.682;23.322;2022-09-01T03:37:53;25.13;;;15.45;;
71570;SDS011;59407;42.682;23.322;2022-09-01T03:40:23;23.23;;;15.43;;
71570;SDS011;59407;42.682;23.322;2022-09-01T03:42:51;25.33;;;14.32;;
71570;SDS011;59407;42.682;23.322;2022-09-01T03:45:17;23.67;;;15.63;;
71570;SDS011;59407;42.682;23.322;2022-09-01T03:47:44;27.33;;;15.93;;
71570;SDS011;59407;42.682;23.322;2022-09-01T03:50:13;24.52;;;14.75;;
71570;SDS011;59407;42.682;23.322;2022-09-01T03:52:50;24.53;;;15.03;;
71570;SDS011;59407;42.682;23.322;2022-09-01T03:55:21;27.95;;;16.02;;
71570;SDS011;59407;42.682;23.322;2022-09-01T03:57:56;23.95;;;15.05;;
71570;SDS011;59407;42.682;23.322;2022-09-01T04:00:25;28.73;;;15.98;;
71570;SDS011;59407;42.682;23.322;2022-09-01T04:02:54;24.23;;;14.90;;
71570;SDS011;59407;42.682;23.322;2022-09-01T04:05:23;23.33;;;15.00;;
71570;SDS011;59407;42.682;23.322;2022-09-01T04:07:53;26.98;;;15.73;;
71570;SDS011;59407;42.682;23.322;2022-09-01T04:10:25;28.17;;;16.23;;
71570;SDS011;59407;42.682;23.322;2022-09-01T04:12:50;35.33;;;17.23;;
71570;SDS011;59407;42.682;23.322;2022-09-01T04:15:16;25.33;;;15.23;;
71570;SDS011;59407;42.682;23.322;2022-09-01T04:17:45;25.97;;;16.13;;
71570;SDS011;59407;42.682;23.322;2022-09-01T04:20:29;27.33;;;16.02;;
71570;SDS011;59407;42.682;23.322;2022-09-01T04:23:04;30.73;;;17.10;;
71570;SDS011;59407;42.682;23.322;2022-09-01T04:25:35;30.35;;;16.40;;
71570;SDS011;59407;42.682;23.322;2022-09-01T04:28:03;28.88;;;16.80;;
71570;SDS011;59407;42.682;23.322;2022-09-01T04:30:37;29.63;;;17.53;;
71570;SDS011;59407;42.682;23.322;2022-09-01T04:33:05;26.27;;;16.40;;
71570;SDS011;59407;42.682;23.322;2022-09-01T04:35:31;35.20;;;18.13;;
71570;SDS011;59407;42.682;23.322;2022-09-01T04:37:57;35.05;;;17.38;;
71570;SDS011;59407;42.682;23.322;2022-09-01T04:40:25;26.00;;;15.93;;
71570;SDS011;59407;42.682;23.322;2022-09-01T04:42:51;26.93;;;16.77;;
71570;SDS011;59407;42.682;23.322;2022-09-01T04:45:16;26.90;;;16.42;;
71570;SDS011;59407;42.682;23.322;2022-09-01T04:47:44;31.27;;;17.65;;
71570;SDS011;59407;42.682;23.322;2022-09-01T04:50:10;28.60;;;17.17;;
71570;SDS011;59407;42.682;23.322;2022-09-01T04:52:41;27.83;;;17.33;;
71570;SDS011;59407;42.682;23.322;2022-09-01T04:55:08;28.02;;;17.00;;
71570;SDS011;59407;42.682;23.322;2022-09-01T04:57:43;33.40;;;17.85;;
71570;SDS011;59407;42.682;23.322;2022-09-01T05:00:16;25.60;;;16.48;;
71570;SDS011;59407;42.682;23.322;2022-09-01T05:02:53;28.77;;;15.97;;
71570;SDS011;59407;42.682;23.322;2022-09-01T05:05:27;25.33;;;15.57;;
71570;SDS011;59407;42.682;23.322;2022-09-01T05:07:53;27.25;;;15.52;;
71570;SDS011;59407;42.682;23.322;2022-09-01T05:10:19;26.95;;;16.30;;
71570;SDS011;59407;42.682;23.322;2022-09-01T05:12:46;27.85;;;16.58;;
71570;SDS011;59407;42.682;23.322;2022-09-01T05:15:12;26.80;;;15.50;;
71570;SDS011;59407;42.682;23.322;2022-09-01T05:17:38;27.02;;;16.90;;
71570;SDS011;59407;42.682;23.322;2022-09-01T05:20:05;25.17;;;15.63;;
71570;SDS011;59407;42.682;23.322;2022-09-01T05:22:32;27.40;;;16.38;;
71570;SDS011;59407;42.682;23.322;2022-09-01T05:24:58;25.77;;;15.80;;
71570;SDS011;59407;42.682;23.322;2022-09-01T05:27:29;27.63;;;16.20;;
71570;SDS011;59407;42.682;23.322;2022-09-01T05:29:55;27.05;;;16.67;;
71570;SDS011;59407;42.682;23.322;2022-09-01T05:32:24;30.45;;;17.95;;
71570;SDS011;59407;42.682;23.322;2022-09-01T05:34:51;27.48;;;16.67;;
71570;SDS011;59407;42.682;23.322;2022-09-01T05:37:17;25.83;;;17.23;;
71570;SDS011;59407;42.682;23.322;2022-09-01T05:39:44;28.67;;;18.02;;
71570;SDS011;59407;42.682;23.322;2022-09-01T05:42:09;33.55;;;19.48;;
71570;SDS011;59407;42.682;23.322;2022-09-01T05:44:35;32.97;;;18.60;;
71570;SDS011;59407;42.682;23.322;2022-09-01T05:47:01;35.58;;;19.23;;
71570;SDS011;59407;42.682;23.322;2022-09-01T05:49:27;36.73;;;19.70;;
71570;SDS011;59407;42.682;23.322;2022-09-01T05:51:52;32.07;;;17.47;;
71570;SDS011;59407;42.682;23.322;2022-09-01T05:54:22;34.65;;;19.52;;
71570;SDS011;59407;42.682;23.322;2022-09-01T05:56:49;35.07;;;19.30;;
71570;SDS011;59407;42.682;23.322;2022-09-01T05:59:21;36.75;;;18.95;;
71570;SDS011;59407;42.682;23.322;2022-09-01T06:01:54;56.65;;;20.00;;
71570;SDS011;59407;42.682;23.322;2022-09-01T06:04:29;38.00;;;18.58;;
71570;SDS011;59407;42.682;23.322;2022-09-01T06:07:05;38.80;;;18.80;;
71570;SDS011;59407;42.682;23.322;2022-09-01T06:13:02;34.53;;;20.52;;
71570;SDS011;59407;42.682;23.322;2022-09-01T06:15:52;38.10;;;21.15;;
71570;SDS011;59407;42.682;23.322;2022-09-01T06:18:18;35.92;;;20.58;;
71570;SDS011;59407;42.682;23.322;2022-09-01T06:20:47;32.35;;;19.83;;
71570;SDS011;59407;42.682;23.322;2022-09-01T06:23:13;36.53;;;20.07;;
71570;SDS011;59407;42.682;23.322;2022-09-01T06:25:41;38.75;;;20.02;;
71570;SDS011;59407;42.682;23.322;2022-09-01T06:28:16;36.40;;;20.13;;
71570;SDS011;59407;42.682;23.322;2022-09-01T06:30:56;37.30;;;22.50;;
71570;SDS011;59407;42.682;23.322;2022-09-01T06:33:22;40.08;;;21.60;;
71570;SDS011;59407;42.682;23.322;2022-09-01T06:36:00;50.77;;;23.03;;
71570;SDS011;59407;42.682;23.322;2022-09-01T06:38:28;41.53;;;22.05;;
71570;SDS011;59407;42.682;23.322;2022-09-01T06:40:59;41.50;;;21.30;;
71570;SDS011;59407;42.682;23.322;2022-09-01T06:43:26;39.67;;;20.38;;
71570;SDS011;59407;42.682;23.322;2022-09-01T06:45:54;43.67;;;21.60;;
71570;SDS011;59407;42.682;23.322;2022-09-01T06:48:20;43.07;;;22.10;;
71570;SDS011;59407;42.682;23.322;2022-09-01T06:50:47;44.83;;;21.75;;
71570;SDS011;59407;42.682;23.322;2022-09-01T06:53:13;42.83;;;21.98;;
71570;SDS011;59407;42.682;23.322;2022-09-01T06:55:43;41.08;;;21.77;;
71570;SDS011;59407;42.682;23.322;2022-09-01T06:58:10;40.20;;;20.70;;
71570;SDS011;59407;42.682;23.322;2022-09-01T07:00:39;39.77;;;20.83;;
71570;SDS011;59407;42.682;23.322;2022-09-01T07:03:06;34.35;;;20.55;;
71570;SDS011;59407;42.682;23.322;2022-09-01T07:05:36;39.45;;;20.38;;
71570;SDS011;59407;42.682;23.322;2022-09-01T07:08:03;37.00;;;19.10;;
71570;SDS011;59407;42.682;23.322;2022-09-01T07:13:12;36.70;;;19.27;;
71570;SDS011;59407;42.682;23.322;2022-09-01T07:15:51;34.03;;;18.83;;
71570;SDS011;59407;42.682;23.322;2022-09-01T07:18:22;37.03;;;19.63;;
71570;SDS011;59407;42.682;23.322;2022-09-01T07:21:10;33.75;;;20.75;;
71570;SDS011;59407;42.682;23.322;2022-09-01T07:23:36;36.50;;;19.37;;
71570;SDS011;59407;42.682;23.322;2022-09-01T07:26:04;32.45;;;19.13;;
71570;SDS011;59407;42.682;23.322;2022-09-01T07:28:31;29.33;;;17.98;;
71570;SDS011;59407;42.682;23.322;2022-09-01T07:30:57;34.50;;;20.27;;
71570;SDS011;59407;42.682;23.322;2022-09-01T07:33:23;35.58;;;18.85;;
71570;SDS011;59407;42.682;23.322;2022-09-01T07:35:49;36.53;;;18.90;;
71570;SDS011;59407;42.682;23.322;2022-09-01T07:38:19;35.05;;;19.80;;
71570;SDS011;59407;42.682;23.322;2022-09-01T07:40:45;35.10;;;19.27;;
71570;SDS011;59407;42.682;23.322;2022-09-01T07:43:18;30.15;;;18.13;;
71570;SDS011;59407;42.682;23.322;2022-09-01T07:45:50;34.23;;;20.33;;
71570;SDS011;59407;42.682;23.322;2022-09-01T07:48:20;34.92;;;19.10;;
71570;SDS011;59407;42.682;23.322;2022-09-01T07:50:48;37.35;;;21.90;;
71570;SDS011;59407;42.682;23.322;2022-09-01T07:53:16;35.58;;;20.27;;
71570;SDS011;59407;42.682;23.322;2022-09-01T07:55:52;35.35;;;20.00;;
71570;SDS011;59407;42.682;23.322;2022-09-01T07:58:19;39.73;;;22.23;;
71570;SDS011;59407;42.682;23.322;2022-09-01T08:00:47;39.65;;;22.02;;
71570;SDS011;59407;42.682;23.322;2022-09-01T08:03:14;41.22;;;22.92;;
71570;SDS011;59407;42.682;23.322;2022-09-01T08:05:40;38.88;;;22.13;;
71570;SDS011;59407;42.682;23.322;2022-09-01T08:08:07;36.35;;;23.05;;
71570;SDS011;59407;42.682;23.322;2022-09-01T08:10:32;40.10;;;22.37;;
71570;SDS011;59407;42.682;23.322;2022-09-01T08:12:58;38.43;;;21.33;;
71570;SDS011;59407;42.682;23.322;2022-09-01T08:15:24;38.70;;;22.20;;
71570;SDS011;59407;42.682;23.322;2022-09-01T08:17:49;39.97;;;22.33;;
71570;SDS011;59407;42.682;23.322;2022-09-01T08:20:15;38.93;;;22.17;;
71570;SDS011;59407;42.682;23.322;2022-09-01T08:22:40;35.20;;;20.70;;
71570;SDS011;59407;42.682;23.322;2022-09-01T08:25:06;35.00;;;20.13;;
71570;SDS011;59407;42.682;23.322;2022-09-01T08:27:33;38.00;;;21.00;;
71570;SDS011;59407;42.682;23.322;2022-09-01T08:30:09;35.67;;;20.63;;
71570;SDS011;59407;42.682;23.322;2022-09-01T08:32:37;37.25;;;21.00;;
71570;SDS011;59407;42.682;23.322;2022-09-01T08:35:05;34.50;;;21.20;;
71570;SDS011;59407;42.682;23.322;2022-09-01T08:40:57;29.38;;;17.35;;
71570;SDS011;59407;42.682;23.322;2022-09-01T08:46:01;31.42;;;17.95;;
71570;SDS011;59407;42.682;23.322;2022-09-01T09:04:43;28.90;;;17.13;;
71570;SDS011;59407;42.682;23.322;2022-09-01T09:16:42;23.60;;;15.50;;
71570;SDS011;59407;42.682;23.322;2022-09-01T09:21:54;24.33;;;15.02;;
71570;SDS011;59407;42.682;23.322;2022-09-01T09:24:28;24.92;;;15.63;;
71570;SDS011;59407;42.682;23.322;2022-09-01T09:30:11;21.42;;;13.85;;
71570;SDS011;59407;42.682;23.322;2022-09-01T09:35:25;18.50;;;12.55;;
71570;SDS011;59407;42.682;23.322;2022-09-01T09:38:23;20.58;;;13.60;;
71570;SDS011;59407;42.682;23.322;2022-09-01T10:29:29;15.40;;;11.38;;
71570;SDS011;59407;42.682;23.322;2022-09-01T10:31:59;15.82;;;10.70;;
71570;SDS011;59407;42.682;23.322;2022-09-01T10:34:32;17.63;;;10.60;;
71570;SDS011;59407;42.682;23.322;2022-09-01T11:01:14;12.52;;;8.80;;
71570;SDS011;59407;42.682;23.322;2022-09-01T11:04:23;14.70;;;10.02;;
71570;SDS011;59407;42.682;23.322;2022-09-01T12:08:04;11.38;;;8.00;;
71570;SDS011;59407;42.682;23.322;2022-09-01T12:10:43;12.93;;;8.20;;
71570;SDS011;59407;42.682;23.322;2022-09-01T12:13:11;12.45;;;7.60;;
71570;SDS011;59407;42.682;23.322;2022-09-01T12:15:42;10.57;;;7.95;;
71570;SDS011;59407;42.682;23.322;2022-09-01T12:18:19;14.33;;;8.77;;
71570;SDS011;59407;42.682;23.322;2022-09-01T12:20:47;13.30;;;8.98;;
71570;SDS011;59407;42.682;23.322;2022-09-01T12:23:15;12.25;;;8.88;;
71570;SDS011;59407;42.682;23.322;2022-09-01T12:25:49;13.02;;;8.63;;
71570;SDS011;59407;42.682;23.322;2022-09-01T12:28:22;14.52;;;11.35;;
71570;SDS011;59407;42.682;23.322;2022-09-01T12:30:49;12.37;;;8.43;;
71570;SDS011;59407;42.682;23.322;2022-09-01T12:33:21;17.13;;;9.30;;
71570;SDS011;59407;42.682;23.322;2022-09-01T13:06:50;13.75;;;9.60;;
71570;SDS011;59407;42.682;23.322;2022-09-01T13:09:16;13.30;;;9.27;;
71570;SDS011;59407;42.682;23.322;2022-09-01T13:11:42;13.85;;;9.50;;
71570;SDS011;59407;42.682;23.322;2022-09-01T13:14:11;19.35;;;10.85;;
71570;SDS011;59407;42.682;23.322;2022-09-01T13:16:38;17.58;;;9.80;;
71570;SDS011;59407;42.682;23.322;2022-09-01T13:19:03;14.33;;;9.00;;
71570;SDS011;59407;42.682;23.322;2022-09-01T13:21:31;19.08;;;11.85;;
71570;SDS011;59407;42.682;23.322;2022-09-01T13:23:57;11.47;;;8.93;;
71570;SDS011;59407;42.682;23.322;2022-09-01T13:26:23;12.88;;;9.60;;
71570;SDS011;59407;42.682;23.322;2022-09-01T13:28:49;16.35;;;10.32;;
71570;SDS011;59407;42.682;23.322;2022-09-01T13:31:15;13.37;;;9.23;;
71570;SDS011;59407;42.682;23.322;2022-09-01T13:33:41;16.57;;;9.37;;
71570;SDS011;59407;42.682;23.322;2022-09-01T13:36:06;15.03;;;9.07;;
71570;SDS011;59407;42.682;23.322;2022-09-01T13:38:32;14.50;;;9.10;;
71570;SDS011;59407;42.682;23.322;2022-09-01T13:40:58;12.70;;;8.73;;
71570;SDS011;59407;42.682;23.322;2022-09-01T13:43:24;15.47;;;10.93;;
71570;SDS011;59407;42.682;23.322;2022-09-01T13:45:51;13.45;;;9.70;;
71570;SDS011;59407;42.682;23.322;2022-09-01T13:48:17;15.73;;;10.40;;
71570;SDS011;59407;42.682;23.322;2022-09-01T13:50:43;12.87;;;8.97;;
71570;SDS011;59407;42.682;23.322;2022-09-01T13:53:10;13.23;;;9.45;;
71570;SDS011;59407;42.682;23.322;2022-09-01T13:55:38;12.17;;;9.07;;
71570;SDS011;59407;42.682;23.322;2022-09-01T13:58:04;12.60;;;9.18;;
71570;SDS011;59407;42.682;23.322;2022-09-01T14:00:31;11.37;;;9.43;;
71570;SDS011;59407;42.682;23.322;2022-09-01T14:03:08;17.65;;;12.73;;
71570;SDS011;59407;42.682;23.322;2022-09-01T14:05:36;12.55;;;8.85;;
71570;SDS011;59407;42.682;23.322;2022-09-01T14:08:03;14.35;;;8.57;;
71570;SDS011;59407;42.682;23.322;2022-09-01T14:10:30;11.55;;;8.07;;
71570;SDS011;59407;42.682;23.322;2022-09-01T14:12:56;10.67;;;7.67;;
71570;SDS011;59407;42.682;23.322;2022-09-01T14:15:22;12.63;;;7.53;;
71570;SDS011;59407;42.682;23.322;2022-09-01T14:17:50;14.45;;;8.32;;
71570;SDS011;59407;42.682;23.322;2022-09-01T14:20:18;10.70;;;8.27;;
71570;SDS011;59407;42.682;23.322;2022-09-01T14:22:45;13.18;;;8.32;;
71570;SDS011;59407;42.682;23.322;2022-09-01T14:25:12;13.00;;;8.85;;
71570;SDS011;59407;42.682;23.322;2022-09-01T14:27:38;12.75;;;9.55;;
71570;SDS011;59407;42.682;23.322;2022-09-01T14:30:07;16.37;;;9.50;;
71570;SDS011;59407;42.682;23.322;2022-09-01T14:32:36;13.68;;;9.32;;
71570;SDS011;59407;42.682;23.322;2022-09-01T14:35:04;14.30;;;9.57;;
71570;SDS011;59407;42.682;23.322;2022-09-01T14:37:32;12.65;;;9.52;;
71570;SDS011;59407;42.682;23.322;2022-09-01T14:39:58;13.30;;;9.48;;
71570;SDS011;59407;42.682;23.322;2022-09-01T14:42:23;13.37;;;10.03;;
71570;SDS011;59407;42.682;23.322;2022-09-01T14:44:49;15.90;;;9.60;;
71570;SDS011;59407;42.682;23.322;2022-09-01T14:47:16;13.20;;;9.83;;
71570;SDS011;59407;42.682;23.322;2022-09-01T14:49:42;14.75;;;10.63;;
71570;SDS011;59407;42.682;23.322;2022-09-01T14:52:08;16.65;;;9.77;;
71570;SDS011;59407;42.682;23.322;2022-09-01T14:54:35;17.15;;;10.13;;
71570;SDS011;59407;42.682;23.322;2022-09-01T14:57:02;14.80;;;9.40;;
71570;SDS011;59407;42.682;23.322;2022-09-01T14:59:28;12.33;;;10.00;;
71570;SDS011;59407;42.682;23.322;2022-09-01T15:01:53;16.50;;;10.68;;
71570;SDS011;59407;42.682;23.322;2022-09-01T15:04:19;15.70;;;11.23;;
71570;SDS011;59407;42.682;23.322;2022-09-01T15:06:44;17.40;;;13.53;;
71570;SDS011;59407;42.682;23.322;2022-09-01T15:09:10;16.67;;;11.50;;
71570;SDS011;59407;42.682;23.322;2022-09-01T15:11:35;14.83;;;9.83;;
71570;SDS011;59407;42.682;23.322;2022-09-01T15:14:01;15.23;;;10.60;;
71570;SDS011;59407;42.682;23.322;2022-09-01T15:16:26;12.63;;;10.03;;
71570;SDS011;59407;42.682;23.322;2022-09-01T15:18:52;18.27;;;10.63;;
71570;SDS011;59407;42.682;23.322;2022-09-01T15:21:24;13.07;;;10.02;;
71570;SDS011;59407;42.682;23.322;2022-09-01T15:23:56;14.47;;;10.50;;
71570;SDS011;59407;42.682;23.322;2022-09-01T15:26:22;16.38;;;10.68;;
71570;SDS011;59407;42.682;23.322;2022-09-01T15:28:48;16.23;;;10.85;;
71570;SDS011;59407;42.682;23.322;2022-09-01T15:31:14;15.02;;;11.02;;
71570;SDS011;59407;42.682;23.322;2022-09-01T15:33:42;19.00;;;10.83;;
71570;SDS011;59407;42.682;23.322;2022-09-01T15:36:07;22.25;;;13.80;;
71570;SDS011;59407;42.682;23.322;2022-09-01T15:38:33;16.67;;;12.43;;
71570;SDS011;59407;42.682;23.322;2022-09-01T15:40:59;16.80;;;10.67;;
71570;SDS011;59407;42.682;23.322;2022-09-01T15:43:28;17.38;;;11.32;;
71570;SDS011;59407;42.682;23.322;2022-09-01T15:45:55;15.10;;;10.85;;
71570;SDS011;59407;42.682;23.322;2022-09-01T15:48:22;14.55;;;11.23;;
71570;SDS011;59407;42.682;23.322;2022-09-01T15:50:48;18.10;;;11.45;;
71570;SDS011;59407;42.682;23.322;2022-09-01T15:53:13;17.07;;;11.20;;
71570;SDS011;59407;42.682;23.322;2022-09-01T15:55:43;16.37;;;11.90;;
71570;SDS011;59407;42.682;23.322;2022-09-01T15:58:09;14.02;;;11.20;;
71570;SDS011;59407;42.682;23.322;2022-09-01T16:00:36;16.65;;;11.40;;
71570;SDS011;59407;42.682;23.322;2022-09-01T16:03:02;16.17;;;11.10;;
71570;SDS011;59407;42.682;23.322;2022-09-01T16:05:28;15.90;;;11.45;;
71570;SDS011;59407;42.682;23.322;2022-09-01T16:07:54;14.43;;;10.50;;
71570;SDS011;59407;42.682;23.322;2022-09-01T16:10:20;17.35;;;11.10;;
71570;SDS011;59407;42.682;23.322;2022-09-01T16:12:46;18.95;;;12.15;;
71570;SDS011;59407;42.682;23.322;2022-09-01T16:15:14;16.20;;;11.13;;
71570;SDS011;59407;42.682;23.322;2022-09-01T16:20:11;17.90;;;10.02;;
71570;SDS011;59407;42.682;23.322;2022-09-01T16:23:29;13.75;;;9.07;;
71570;SDS011;59407;42.682;23.322;2022-09-01T16:25:47;16.27;;;9.02;;
71570;SDS011;59407;42.682;23.322;2022-09-01T16:30:48;17.42;;;9.90;;
71570;SDS011;59407;42.682;23.322;2022-09-01T16:33:14;14.50;;;9.00;;
71570;SDS011;59407;42.682;23.322;2022-09-01T16:35:49;18.33;;;9.82;;
71570;SDS011;59407;42.682;23.322;2022-09-01T16:38:49;14.50;;;9.38;;
71570;SDS011;59407;42.682;23.322;2022-09-01T16:57:45;18.55;;;12.48;;
71570;SDS011;59407;42.682;23.322;2022-09-01T17:00:07;17.83;;;12.60;;
71570;SDS011;59407;42.682;23.322;2022-09-01T17:08:24;18.00;;;12.20;;
71570;SDS011;59407;42.682;23.322;2022-09-01T17:11:08;17.83;;;12.25;;
71570;SDS011;59407;42.682;23.322;2022-09-01T17:13:40;22.70;;;13.73;;
71570;SDS011;59407;42.682;23.322;2022-09-01T17:16:09;19.58;;;11.48;;
71570;SDS011;59407;42.682;23.322;2022-09-01T17:18:57;20.38;;;12.38;;
71570;SDS011;59407;42.682;23.322;2022-09-01T17:21:32;17.40;;;11.67;;
71570;SDS011;59407;42.682;23.322;2022-09-01T17:24:05;17.95;;;11.70;;
71570;SDS011;59407;42.682;23.322;2022-09-01T17:26:36;17.95;;;11.48;;
71570;SDS011;59407;42.682;23.322;2022-09-01T17:29:04;20.77;;;12.60;;
71570;SDS011;59407;42.682;23.322;2022-09-01T17:34:19;14.27;;;10.77;;
71570;SDS011;59407;42.682;23.322;2022-09-01T17:42:39;15.35;;;11.43;;
71570;SDS011;59407;42.682;23.322;2022-09-01T17:46:15;18.63;;;12.98;;
71570;SDS011;59407;42.682;23.322;2022-09-01T17:48:21;18.30;;;12.20;;
71570;SDS011;59407;42.682;23.322;2022-09-01T17:51:11;19.38;;;11.48;;
71570;SDS011;59407;42.682;23.322;2022-09-01T18:01:47;18.40;;;11.80;;
71570;SDS011;59407;42.682;23.322;2022-09-01T18:09:42;20.50;;;12.52;;
71570;SDS011;59407;42.682;23.322;2022-09-01T18:12:11;17.60;;;11.32;;
71570;SDS011;59407;42.682;23.322;2022-09-01T18:14:41;21.43;;;11.07;;
71570;SDS011;59407;42.682;23.322;2022-09-01T18:17:18;15.40;;;11.38;;
71570;SDS011;59407;42.682;23.322;2022-09-01T18:20:02;14.80;;;10.43;;
71570;SDS011;59407;42.682;23.322;2022-09-01T18:23:07;15.68;;;10.88;;
71570;SDS011;59407;42.682;23.322;2022-09-01T18:25:48;17.70;;;10.85;;
71570;SDS011;59407;42.682;23.322;2022-09-01T18:28:16;18.40;;;13.23;;
71570;SDS011;59407;42.682;23.322;2022-09-01T18:33:27;18.23;;;11.20;;
71570;SDS011;59407;42.682;23.322;2022-09-01T18:49:41;18.10;;;11.20;;
71570;SDS011;59407;42.682;23.322;2022-09-01T18:54:47;13.65;;;9.27;;
71570;SDS011;59407;42.682;23.322;2022-09-01T18:57:23;13.82;;;9.48;;
71570;SDS011;59407;42.682;23.322;2022-09-01T19:02:36;13.55;;;10.05;;
71570;SDS011;59407;42.682;23.322;2022-09-01T19:05:50;14.50;;;10.10;;
71570;SDS011;59407;42.682;23.322;2022-09-01T19:08:09;13.05;;;9.35;;
71570;SDS011;59407;42.682;23.322;2022-09-01T19:22:13;19.08;;;11.80;;